createdAt,value
2016-12-29T00:00:12.668Z,22.02
2016-12-29T00:00:53.153Z,21.92
2016-12-29T00:01:33.639Z,21.92
2016-12-29T00:02:14.133Z,22.02
2016-12-29T00:02:54.623Z,22.12
2016-12-29T00:03:35.120Z,22.02
2016-12-29T00:04:15.622Z,22.12
2016-12-29T00:04:56.117Z,22.02
2016-12-29T00:05:36.621Z,21.92
2016-12-29T00:06:17.112Z,22.22
2016-12-29T00:06:57.615Z,22.12
2016-12-29T00:07:38.119Z,22.12
2016-12-29T00:08:18.608Z,22.12
2016-12-29T00:08:59.098Z,22.12
2016-12-29T00:09:39.591Z,22.22
2016-12-29T00:10:20.084Z,22.12
2016-12-29T00:11:00.575Z,22.22
2016-12-29T00:11:41.064Z,22.31
2016-12-29T00:12:21.556Z,22.22
2016-12-29T00:13:02.052Z,22.22
2016-12-29T00:13:42.541Z,22.12
2016-12-29T00:14:23.036Z,22.22
2016-12-29T00:15:03.532Z,22.31
2016-12-29T00:15:44.334Z,22.31
2016-12-29T00:16:24.755Z,22.31
2016-12-29T00:17:05.252Z,22.22
2016-12-29T00:17:45.740Z,22.22
2016-12-29T00:18:26.236Z,22.31
2016-12-29T00:19:06.725Z,22.41
2016-12-29T00:19:47.218Z,22.31
2016-12-29T00:20:27.709Z,22.22
2016-12-29T00:21:08.208Z,22.22
2016-12-29T00:21:48.710Z,22.22
2016-12-29T00:22:29.204Z,22.31
2016-12-29T00:23:10.373Z,22.22
2016-12-29T00:23:50.870Z,22.22
2016-12-29T00:24:31.371Z,22.22
2016-12-29T00:25:11.865Z,22.22
2016-12-29T00:25:52.379Z,22.02
2016-12-29T00:26:32.869Z,22.41
2016-12-29T00:27:13.366Z,22.22
2016-12-29T00:27:53.868Z,22.2
2016-12-29T00:28:34.381Z,22.31
2016-12-29T00:29:14.873Z,22.2
2016-12-29T00:29:55.376Z,21.92
2016-12-29T00:30:35.866Z,22.31
2016-12-29T00:31:16.362Z,22.2
2016-12-29T00:31:56.864Z,22.12
2016-12-29T00:32:37.356Z,22.22
2016-12-29T00:33:17.852Z,22.22
2016-12-29T00:33:58.341Z,22.02
2016-12-29T00:34:38.838Z,22.02
2016-12-29T00:35:19.339Z,22.02
2016-12-29T00:35:59.827Z,22.11
2016-12-29T00:36:40.317Z,21.92
2016-12-29T00:37:20.817Z,21.92
2016-12-29T00:38:01.305Z,21.92
2016-12-29T00:38:41.823Z,21.92
2016-12-29T00:39:22.317Z,22.02
2016-12-29T00:40:02.817Z,22.01
2016-12-29T00:40:43.304Z,22.22
2016-12-29T00:41:23.803Z,22.3
2016-12-29T00:42:04.302Z,22.22
2016-12-29T00:42:44.819Z,22.12
2016-12-29T00:43:25.307Z,22.02
2016-12-29T00:44:05.810Z,22.11
2016-12-29T00:44:46.298Z,22.12
2016-12-29T00:45:26.812Z,22.02
2016-12-29T00:46:07.301Z,22.2
2016-12-29T00:46:47.788Z,22.01
2016-12-29T00:47:28.288Z,22.2
2016-12-29T00:48:08.773Z,22.12
2016-12-29T00:48:49.275Z,22.11
2016-12-29T00:49:29.776Z,22.22
2016-12-29T00:50:10.288Z,22.12
2016-12-29T00:50:50.795Z,22.02
2016-12-29T00:51:31.293Z,22.11
2016-12-29T00:52:11.791Z,22.2
2016-12-29T00:52:52.271Z,22.02
2016-12-29T00:53:32.758Z,22.12
2016-12-29T00:54:13.251Z,22.11
2016-12-29T00:54:53.741Z,22.22
2016-12-29T00:55:34.239Z,22.22
2016-12-29T00:56:14.744Z,22.22
2016-12-29T00:56:55.251Z,22.22
2016-12-29T00:57:35.749Z,22.22
2016-12-29T00:58:16.232Z,21.92
2016-12-29T00:58:56.714Z,22.22
2016-12-29T00:59:37.201Z,21.92
2016-12-29T01:00:17.695Z,21.92
2016-12-29T01:00:58.185Z,22.22
2016-12-29T01:01:38.681Z,21.92
2016-12-29T01:02:19.181Z,21.92
2016-12-29T01:02:59.676Z,21.92
2016-12-29T01:03:40.159Z,21.92
2016-12-29T01:04:20.645Z,21.92
2016-12-29T01:05:01.148Z,22.12
2016-12-29T01:05:41.643Z,21.92
2016-12-29T01:06:22.138Z,22.02
2016-12-29T01:07:02.634Z,22.01
2016-12-29T01:07:43.123Z,22.22
2016-12-29T01:08:23.622Z,22.12
2016-12-29T01:09:04.108Z,22.22
2016-12-29T01:09:44.592Z,22.2
2016-12-29T01:10:25.083Z,22.22
2016-12-29T01:11:05.583Z,22.12
2016-12-29T01:11:46.072Z,22.02
2016-12-29T01:12:26.569Z,22.31
2016-12-29T01:13:07.069Z,22.02
2016-12-29T01:13:47.562Z,22.12
2016-12-29T01:14:28.059Z,22.12
2016-12-29T01:15:08.559Z,22.12
2016-12-29T01:15:49.047Z,22.12
2016-12-29T01:16:29.537Z,21.92
2016-12-29T01:17:10.045Z,22.12
2016-12-29T01:17:50.546Z,22.02
2016-12-29T01:18:31.036Z,22.12
2016-12-29T01:19:11.528Z,22.2
2016-12-29T01:19:52.024Z,22.22
2016-12-29T01:20:32.515Z,22.02
2016-12-29T01:21:13.007Z,22.22
2016-12-29T01:21:53.511Z,22.02
2016-12-29T01:22:34.009Z,22.02
2016-12-29T01:23:14.510Z,21.92
2016-12-29T01:23:55.009Z,21.92
2016-12-29T01:24:35.501Z,21.92
2016-12-29T01:25:15.989Z,22.11
2016-12-29T01:25:56.486Z,22.12
2016-12-29T01:26:36.997Z,22.12
2016-12-29T01:27:17.483Z,22.12
2016-12-29T01:27:57.978Z,22.11
2016-12-29T01:28:38.479Z,22.01
2016-12-29T01:29:18.965Z,22.11
2016-12-29T01:29:59.479Z,22.12
2016-12-29T01:30:39.963Z,22.02
2016-12-29T01:31:20.461Z,21.92
2016-12-29T01:32:00.952Z,22.01
2016-12-29T01:32:41.447Z,21.83
2016-12-29T01:33:21.943Z,21.83
2016-12-29T01:34:02.447Z,21.83
2016-12-29T01:34:42.948Z,21.83
2016-12-29T01:35:23.447Z,21.83
2016-12-29T01:36:03.943Z,21.83
2016-12-29T01:36:44.424Z,22.01
2016-12-29T01:37:25.143Z,21.92
2016-12-29T01:38:05.631Z,21.62
2016-12-29T01:38:46.122Z,21.92
2016-12-29T01:39:26.611Z,21.92
2016-12-29T01:40:07.108Z,21.83
2016-12-29T01:40:47.597Z,21.92
2016-12-29T01:41:28.093Z,21.92
2016-12-29T01:42:08.597Z,21.92
2016-12-29T01:42:49.101Z,21.62
2016-12-29T01:43:29.592Z,21.82
2016-12-29T01:44:10.101Z,21.72
2016-12-29T01:44:50.594Z,21.83
2016-12-29T01:45:31.087Z,21.73
2016-12-29T01:46:11.569Z,21.73
2016-12-29T01:46:52.070Z,21.73
2016-12-29T01:47:32.561Z,21.73
2016-12-29T01:48:13.042Z,21.62
2016-12-29T01:48:53.529Z,21.72
2016-12-29T01:49:34.016Z,21.73
2016-12-29T01:50:14.509Z,21.73
2016-12-29T01:50:55.012Z,21.82
2016-12-29T01:51:35.505Z,21.82
2016-12-29T01:52:15.993Z,21.82
2016-12-29T01:52:56.482Z,21.82
2016-12-29T01:53:36.994Z,21.62
2016-12-29T01:54:17.481Z,21.92
2016-12-29T01:54:57.995Z,21.92
2016-12-29T01:55:38.482Z,21.64
2016-12-29T01:56:18.974Z,21.82
2016-12-29T01:56:59.470Z,21.72
2016-12-29T01:57:39.961Z,21.82
2016-12-29T01:58:20.446Z,21.82
2016-12-29T01:59:00.927Z,21.83
2016-12-29T01:59:41.434Z,21.62
2016-12-29T02:00:21.928Z,21.92
2016-12-29T02:01:02.421Z,21.82
2016-12-29T02:01:42.914Z,21.62
2016-12-29T02:02:23.728Z,21.53
2016-12-29T02:03:04.231Z,21.54
2016-12-29T02:03:44.741Z,21.54
2016-12-29T02:04:25.229Z,21.53
2016-12-29T02:05:05.734Z,21.64
2016-12-29T02:05:46.227Z,21.54
2016-12-29T02:06:26.741Z,21.44
2016-12-29T02:07:07.228Z,21.53
2016-12-29T02:07:47.725Z,21.53
2016-12-29T02:08:28.220Z,21.53
2016-12-29T02:09:08.736Z,21.53
2016-12-29T02:09:49.231Z,21.53
2016-12-29T02:10:29.733Z,21.53
2016-12-29T02:11:10.224Z,21.53
2016-12-29T02:11:50.718Z,21.53
2016-12-29T02:12:31.199Z,21.53
2016-12-29T02:13:11.690Z,21.44
2016-12-29T02:13:52.198Z,21.53
2016-12-29T02:14:32.690Z,21.44
2016-12-29T02:15:13.196Z,21.62
2016-12-29T02:15:53.688Z,21.53
2016-12-29T02:16:34.194Z,21.53
2016-12-29T02:17:14.681Z,21.53
2016-12-29T02:17:55.175Z,21.53
2016-12-29T02:18:35.666Z,21.62
2016-12-29T02:19:16.176Z,21.62
2016-12-29T02:19:56.663Z,21.53
2016-12-29T02:20:37.178Z,21.62
2016-12-29T02:21:17.667Z,21.82
2016-12-29T02:21:58.170Z,21.82
2016-12-29T02:22:38.661Z,21.82
2016-12-29T02:24:36.347Z,21.82
2016-12-29T02:25:16.848Z,21.64
2016-12-29T02:25:57.350Z,21.62
2016-12-29T02:26:37.836Z,21.82
2016-12-29T02:27:18.323Z,21.82
2016-12-29T02:27:58.814Z,21.82
2016-12-29T02:28:39.320Z,21.82
2016-12-29T02:29:19.807Z,21.82
2016-12-29T02:30:00.309Z,21.72
2016-12-29T02:30:40.810Z,21.72
2016-12-29T02:31:21.311Z,21.72
2016-12-29T02:32:01.807Z,21.72
2016-12-29T02:32:42.312Z,21.24
2016-12-29T02:33:22.812Z,21.34
2016-12-29T02:34:03.307Z,21.72
2016-12-29T02:34:43.821Z,21.82
2016-12-29T02:35:24.309Z,21.62
2016-12-29T02:36:04.804Z,21.62
2016-12-29T02:36:45.307Z,21.53
2016-12-29T02:37:25.799Z,21.34
2016-12-29T02:38:06.283Z,21.34
2016-12-29T02:38:46.773Z,21.34
2016-12-29T02:39:27.263Z,21.53
2016-12-29T02:40:07.751Z,21.72
2016-12-29T02:40:48.245Z,21.44
2016-12-29T02:41:28.746Z,21.53
2016-12-29T02:42:09.227Z,21.44
2016-12-29T02:42:49.726Z,21.53
2016-12-29T02:43:30.213Z,21.53
2016-12-29T02:44:10.707Z,21.53
2016-12-29T02:44:51.197Z,21.34
2016-12-29T02:45:31.693Z,21.44
2016-12-29T02:46:12.176Z,21.53
2016-12-29T02:46:52.678Z,21.53
2016-12-29T02:47:33.169Z,21.34
2016-12-29T02:48:13.652Z,21.53
2016-12-29T02:48:54.143Z,21.34
2016-12-29T02:49:34.638Z,21.44
2016-12-29T02:50:15.139Z,21.34
2016-12-29T02:50:55.633Z,21.44
2016-12-29T02:51:36.117Z,21.44
2016-12-29T02:52:16.612Z,21.44
2016-12-29T02:52:57.103Z,21.44
2016-12-29T02:53:37.597Z,21.44
2016-12-29T02:54:18.085Z,21.44
2016-12-29T02:54:58.582Z,21.44
2016-12-29T02:55:39.082Z,21.34
2016-12-29T02:56:19.584Z,21.44
2016-12-29T02:57:00.080Z,21.34
2016-12-29T02:57:40.591Z,21.53
2016-12-29T02:58:21.084Z,21.44
2016-12-29T02:59:01.579Z,21.44
2016-12-29T02:59:42.086Z,21.34
2016-12-29T03:00:22.580Z,21.53
2016-12-29T03:01:03.075Z,21.44
2016-12-29T03:01:43.589Z,21.44
2016-12-29T03:02:24.080Z,21.53
2016-12-29T03:03:04.577Z,21.53
2016-12-29T03:03:45.262Z,21.53
2016-12-29T03:04:25.752Z,21.53
2016-12-29T03:05:06.251Z,21.53
2016-12-29T03:05:46.732Z,21.53
2016-12-29T03:06:27.226Z,21.53
2016-12-29T03:07:07.727Z,21.62
2016-12-29T03:07:48.313Z,21.53
2016-12-29T03:08:28.801Z,21.44
2016-12-29T03:10:16.327Z,21.53
2016-12-29T03:10:56.805Z,21.53
2016-12-29T03:11:37.314Z,21.53
2016-12-29T03:12:17.796Z,21.44
2016-12-29T03:12:58.296Z,21.53
2016-12-29T03:13:38.791Z,21.62
2016-12-29T03:14:19.307Z,21.53
2016-12-29T03:14:59.796Z,21.53
2016-12-29T03:15:40.313Z,21.53
2016-12-29T03:16:20.796Z,21.24
2016-12-29T03:17:01.291Z,21.24
2016-12-29T03:17:41.774Z,21.24
2016-12-29T03:18:22.256Z,21.53
2016-12-29T03:19:02.762Z,21.24
2016-12-29T03:19:43.255Z,21.34
2016-12-29T03:20:23.750Z,21.44
2016-12-29T03:21:04.239Z,21.44
2016-12-29T03:21:44.750Z,21.34
2016-12-29T03:22:25.236Z,21.15
2016-12-29T03:23:05.749Z,21.24
2016-12-29T03:23:46.239Z,21.44
2016-12-29T03:24:26.735Z,21.34
2016-12-29T03:25:07.215Z,21.24
2016-12-29T03:25:47.710Z,21.34
2016-12-29T03:26:28.203Z,21.34
2016-12-29T03:27:08.696Z,21.44
2016-12-29T03:27:49.191Z,21.34
2016-12-29T03:28:29.686Z,21.44
2016-12-29T03:29:10.194Z,21.34
2016-12-29T03:29:50.679Z,21.34
2016-12-29T03:30:31.189Z,21.44
2016-12-29T03:31:11.677Z,21.44
2016-12-29T03:31:52.170Z,21.44
2016-12-29T03:32:32.656Z,21.44
2016-12-29T03:33:13.157Z,21.72
2016-12-29T03:33:53.649Z,21.62
2016-12-29T03:34:34.127Z,21.34
2016-12-29T03:35:14.618Z,21.62
2016-12-29T03:35:55.101Z,21.72
2016-12-29T03:36:35.577Z,21.53
2016-12-29T03:37:16.072Z,21.62
2016-12-29T03:37:56.585Z,21.62
2016-12-29T03:38:37.081Z,21.72
2016-12-29T03:39:17.709Z,21.62
2016-12-29T03:39:58.200Z,21.62
2016-12-29T03:40:38.681Z,21.72
2016-12-29T03:41:19.180Z,21.62
2016-12-29T03:41:59.670Z,21.53
2016-12-29T03:42:40.180Z,21.62
2016-12-29T03:43:20.666Z,21.44
2016-12-29T03:44:01.166Z,21.34
2016-12-29T03:44:41.674Z,21.44
2016-12-29T03:45:22.172Z,21.53
2016-12-29T03:46:02.662Z,21.53
2016-12-29T03:46:43.149Z,21.53
2016-12-29T03:47:23.634Z,21.34
2016-12-29T03:48:04.113Z,21.44
2016-12-29T03:48:44.626Z,21.34
2016-12-29T03:49:25.115Z,21.34
2016-12-29T03:50:05.622Z,21.53
2016-12-29T03:50:46.109Z,21.34
2016-12-29T03:51:26.603Z,21.34
2016-12-29T03:52:07.207Z,21.34
2016-12-29T03:52:47.664Z,21.34
2016-12-29T03:53:28.167Z,21.34
2016-12-29T03:54:08.658Z,21.34
2016-12-29T03:54:49.149Z,21.34
2016-12-29T03:55:29.634Z,21.34
2016-12-29T03:56:10.116Z,21.34
2016-12-29T03:56:50.611Z,21.34
2016-12-29T03:57:31.105Z,21.44
2016-12-29T03:58:11.597Z,21.34
2016-12-29T03:58:52.085Z,21.44
2016-12-29T03:59:32.904Z,21.44
2016-12-29T04:00:13.386Z,21.15
2016-12-29T04:00:53.883Z,21.34
2016-12-29T04:01:34.379Z,21.34
2016-12-29T04:02:14.870Z,21.24
2016-12-29T04:02:55.363Z,21.34
2016-12-29T04:03:35.857Z,21.24
2016-12-29T04:04:16.370Z,21.24
2016-12-29T04:04:56.856Z,21.24
2016-12-29T04:05:37.369Z,21.44
2016-12-29T04:06:17.854Z,21.44
2016-12-29T04:06:58.365Z,21.05
2016-12-29T04:07:38.850Z,21.15
2016-12-29T04:08:19.360Z,21.34
2016-12-29T04:08:59.850Z,21.44
2016-12-29T04:09:40.346Z,21.44
2016-12-29T04:10:20.849Z,21.44
2016-12-29T04:11:01.343Z,21.24
2016-12-29T04:11:41.824Z,20.95
2016-12-29T04:12:22.316Z,21.44
2016-12-29T04:13:02.816Z,21.44
2016-12-29T04:13:43.299Z,21.05
2016-12-29T04:14:23.802Z,21.24
2016-12-29T04:15:04.292Z,21.05
2016-12-29T04:15:44.790Z,21.44
2016-12-29T04:16:25.293Z,21.34
2016-12-29T04:17:05.784Z,20.95
2016-12-29T04:17:46.266Z,21.24
2016-12-29T04:18:26.761Z,21.44
2016-12-29T04:19:07.267Z,21.24
2016-12-29T04:19:47.748Z,21.34
2016-12-29T04:20:28.251Z,21.05
2016-12-29T04:21:08.737Z,21.44
2016-12-29T04:21:49.243Z,21.24
2016-12-29T04:22:29.732Z,20.95
2016-12-29T04:24:27.420Z,21.05
2016-12-29T04:25:07.907Z,21.34
2016-12-29T04:25:48.391Z,21.24
2016-12-29T04:26:28.884Z,21.24
2016-12-29T04:27:09.365Z,20.95
2016-12-29T04:27:49.860Z,21.05
2016-12-29T04:28:30.351Z,21.05
2016-12-29T04:29:10.830Z,20.95
2016-12-29T04:29:51.315Z,21.15
2016-12-29T04:30:31.800Z,20.95
2016-12-29T04:31:12.285Z,20.86
2016-12-29T04:31:52.807Z,20.86
2016-12-29T04:32:33.287Z,20.95
2016-12-29T04:33:13.778Z,21.24
2016-12-29T04:33:54.260Z,20.86
2016-12-29T04:34:34.747Z,20.76
2016-12-29T04:35:15.236Z,20.76
2016-12-29T04:35:55.730Z,21.05
2016-12-29T04:36:36.219Z,20.86
2016-12-29T04:37:16.705Z,20.76
2016-12-29T04:37:57.191Z,20.76
2016-12-29T04:38:37.699Z,20.76
2016-12-29T04:39:18.177Z,20.86
2016-12-29T04:39:58.689Z,20.86
2016-12-29T04:40:39.178Z,20.86
2016-12-29T04:41:19.669Z,20.95
2016-12-29T04:42:00.170Z,20.76
2016-12-29T04:42:40.679Z,20.76
2016-12-29T04:43:21.170Z,20.76
2016-12-29T04:44:01.678Z,20.86
2016-12-29T04:44:42.167Z,20.86
2016-12-29T04:45:22.660Z,20.86
2016-12-29T04:46:03.143Z,20.86
2016-12-29T04:46:43.620Z,20.86
2016-12-29T04:47:24.125Z,20.86
2016-12-29T04:48:04.617Z,20.86
2016-12-29T04:48:45.109Z,20.86
2016-12-29T04:49:25.613Z,20.86
2016-12-29T04:50:06.107Z,20.95
2016-12-29T04:50:46.603Z,20.76
2016-12-29T04:51:27.106Z,20.86
2016-12-29T04:52:07.589Z,20.95
2016-12-29T04:52:48.086Z,20.95
2016-12-29T04:53:28.584Z,20.95
2016-12-29T04:54:09.083Z,20.86
2016-12-29T04:54:49.574Z,20.86
2016-12-29T04:55:30.058Z,20.95
2016-12-29T04:56:10.547Z,20.95
2016-12-29T04:56:51.031Z,20.95
2016-12-29T04:57:31.523Z,20.95
2016-12-29T04:58:12.010Z,20.95
2016-12-29T04:58:52.500Z,20.95
2016-12-29T04:59:32.993Z,20.95
2016-12-29T05:00:13.476Z,20.86
2016-12-29T05:00:53.966Z,20.86
2016-12-29T05:01:34.458Z,20.86
2016-12-29T05:02:14.948Z,21.05
2016-12-29T05:02:55.445Z,21.15
2016-12-29T05:03:35.945Z,21.05
2016-12-29T05:04:16.459Z,21.05
2016-12-29T05:04:56.947Z,21.15
2016-12-29T05:05:37.436Z,21.05
2016-12-29T05:06:17.920Z,21.15
2016-12-29T05:06:58.413Z,21.15
2016-12-29T05:07:38.920Z,20.86
2016-12-29T05:08:19.417Z,21.15
2016-12-29T05:08:59.916Z,21.15
2016-12-29T05:09:40.396Z,20.86
2016-12-29T05:10:20.901Z,20.86
2016-12-29T05:11:01.389Z,21.05
2016-12-29T05:11:41.887Z,21.15
2016-12-29T05:12:22.386Z,20.76
2016-12-29T05:13:02.881Z,21.05
2016-12-29T05:13:43.365Z,21.15
2016-12-29T05:14:23.844Z,20.86
2016-12-29T05:15:04.341Z,20.86
2016-12-29T05:15:44.831Z,21.15
2016-12-29T05:16:25.326Z,21.05
2016-12-29T05:17:05.832Z,21.05
2016-12-29T05:17:46.340Z,21.05
2016-12-29T05:18:26.831Z,21.05
2016-12-29T05:19:07.325Z,21.05
2016-12-29T05:19:47.819Z,20.95
2016-12-29T05:20:28.309Z,21.05
2016-12-29T05:21:08.804Z,20.95
2016-12-29T05:21:49.295Z,21.05
2016-12-29T05:22:29.803Z,20.95
2016-12-29T05:23:10.288Z,21.15
2016-12-29T05:23:50.782Z,20.95
2016-12-29T05:24:31.274Z,21.15
2016-12-29T05:25:11.770Z,21.05
2016-12-29T05:25:52.495Z,21.05
2016-12-29T05:26:32.988Z,20.86
2016-12-29T05:27:13.477Z,20.86
2016-12-29T05:27:53.971Z,21.15
2016-12-29T05:28:34.454Z,21.05
2016-12-29T05:29:14.943Z,20.86
2016-12-29T05:29:55.451Z,21.05
2016-12-29T05:30:35.936Z,20.86
2016-12-29T05:31:16.431Z,20.86
2016-12-29T05:31:56.920Z,20.86
2016-12-29T05:32:37.412Z,20.95
2016-12-29T05:33:17.896Z,20.76
2016-12-29T05:33:58.375Z,20.76
2016-12-29T05:34:38.877Z,20.86
2016-12-29T05:35:19.366Z,20.76
2016-12-29T05:35:59.865Z,20.95
2016-12-29T05:36:40.360Z,20.86
2016-12-29T05:37:20.838Z,20.76
2016-12-29T05:38:01.334Z,20.86
2016-12-29T05:38:41.815Z,20.86
2016-12-29T05:39:22.306Z,20.76
2016-12-29T05:40:02.789Z,20.76
2016-12-29T05:40:43.285Z,20.76
2016-12-29T05:41:23.782Z,20.95
2016-12-29T05:42:04.272Z,20.76
2016-12-29T05:42:44.765Z,20.47
2016-12-29T05:43:25.252Z,20.86
2016-12-29T05:44:05.772Z,20.86
2016-12-29T05:44:46.252Z,20.57
2016-12-29T05:45:26.768Z,20.47
2016-12-29T05:46:07.255Z,20.57
2016-12-29T05:46:47.745Z,20.47
2016-12-29T05:47:28.233Z,20.47
2016-12-29T05:48:08.729Z,20.86
2016-12-29T05:48:49.225Z,20.67
2016-12-29T05:49:29.701Z,20.47
2016-12-29T05:50:10.218Z,20.57
2016-12-29T05:50:50.700Z,20.86
2016-12-29T05:51:31.206Z,20.57
2016-12-29T05:52:11.694Z,20.86
2016-12-29T05:52:52.211Z,20.67
2016-12-29T05:53:32.704Z,20.86
2016-12-29T05:54:13.204Z,20.57
2016-12-29T05:54:53.687Z,20.67
2016-12-29T05:55:34.174Z,20.86
2016-12-29T05:56:14.666Z,20.47
2016-12-29T05:56:55.150Z,20.67
2016-12-29T05:57:35.650Z,20.38
2016-12-29T05:58:16.138Z,20.47
2016-12-29T05:58:56.636Z,20.57
2016-12-29T05:59:37.137Z,20.76
2016-12-29T06:00:17.638Z,20.76
2016-12-29T06:00:58.138Z,20.76
2016-12-29T06:01:38.630Z,20.67
2016-12-29T06:02:19.113Z,20.67
2016-12-29T06:02:59.589Z,20.76
2016-12-29T06:03:40.081Z,20.76
2016-12-29T06:04:20.562Z,20.86
2016-12-29T06:05:01.058Z,20.76
2016-12-29T06:05:41.553Z,20.76
2016-12-29T06:06:22.035Z,20.76
2016-12-29T06:07:02.538Z,20.86
2016-12-29T06:07:43.027Z,20.76
2016-12-29T06:08:23.543Z,20.76
2016-12-29T06:09:04.039Z,20.76
2016-12-29T06:09:44.534Z,20.76
2016-12-29T06:10:25.024Z,20.76
2016-12-29T06:11:05.543Z,20.67
2016-12-29T06:11:46.333Z,20.67
2016-12-29T06:12:26.827Z,20.67
2016-12-29T06:13:07.327Z,20.76
2016-12-29T06:13:47.839Z,20.67
2016-12-29T06:14:28.326Z,20.76
2016-12-29T06:15:08.838Z,20.67
2016-12-29T06:15:49.330Z,20.57
2016-12-29T06:16:29.827Z,20.67
2016-12-29T06:17:10.326Z,20.67
2016-12-29T06:17:50.827Z,20.67
2016-12-29T06:18:31.305Z,20.57
2016-12-29T06:19:11.785Z,20.57
2016-12-29T06:19:52.283Z,20.57
2016-12-29T06:20:32.774Z,20.57
2016-12-29T06:21:13.267Z,20.76
2016-12-29T06:21:53.751Z,20.57
2016-12-29T06:22:34.227Z,20.67
2016-12-29T06:23:14.730Z,20.47
2016-12-29T06:23:55.222Z,20.76
2016-12-29T06:24:35.714Z,20.76
2016-12-29T06:25:16.197Z,20.67
2016-12-29T06:25:56.694Z,20.67
2016-12-29T06:26:37.207Z,20.67
2016-12-29T06:27:17.673Z,20.67
2016-12-29T06:27:58.173Z,20.67
2016-12-29T06:28:38.662Z,20.76
2016-12-29T06:29:19.159Z,20.67
2016-12-29T06:29:59.650Z,20.67
2016-12-29T06:30:40.138Z,20.67
2016-12-29T06:31:20.636Z,20.76
2016-12-29T06:32:01.416Z,20.67
2016-12-29T06:32:41.926Z,20.57
2016-12-29T06:33:22.415Z,20.76
2016-12-29T06:34:02.909Z,20.76
2016-12-29T06:34:43.408Z,20.57
2016-12-29T06:35:23.890Z,20.67
2016-12-29T06:36:04.386Z,20.67
2016-12-29T06:36:44.868Z,20.67
2016-12-29T06:37:25.369Z,20.76
2016-12-29T06:38:05.858Z,20.67
2016-12-29T06:38:46.354Z,20.47
2016-12-29T06:39:26.837Z,20.86
2016-12-29T06:40:07.336Z,20.76
2016-12-29T06:40:47.825Z,20.86
2016-12-29T06:41:28.307Z,20.67
2016-12-29T06:42:08.803Z,20.76
2016-12-29T06:42:49.301Z,20.57
2016-12-29T06:43:29.798Z,20.76
2016-12-29T06:44:10.293Z,20.76
2016-12-29T06:44:50.780Z,20.38
2016-12-29T06:45:31.280Z,20.76
2016-12-29T06:46:11.756Z,20.76
2016-12-29T06:46:52.258Z,20.47
2016-12-29T06:47:32.747Z,20.86
2016-12-29T06:48:13.243Z,20.47
2016-12-29T06:48:53.736Z,20.47
2016-12-29T06:49:34.224Z,20.57
2016-12-29T06:50:14.712Z,20.38
2016-12-29T06:50:55.199Z,20.57
2016-12-29T06:51:35.691Z,20.57
2016-12-29T06:52:16.193Z,20.67
2016-12-29T06:52:56.708Z,20.57
2016-12-29T06:53:37.200Z,20.57
2016-12-29T06:54:17.699Z,20.47
2016-12-29T06:54:58.191Z,20.47
2016-12-29T06:55:38.688Z,20.47
2016-12-29T06:56:19.185Z,20.47
2016-12-29T06:57:00.147Z,20.47
2016-12-29T06:57:40.546Z,20.67
2016-12-29T06:58:21.047Z,20.47
2016-12-29T06:59:01.557Z,20.47
2016-12-29T06:59:42.043Z,20.47
2016-12-29T07:01:39.713Z,20.57
2016-12-29T07:02:20.213Z,20.57
2016-12-29T07:03:00.701Z,20.67
2016-12-29T07:03:41.195Z,20.47
2016-12-29T07:04:21.676Z,20.57
2016-12-29T07:05:02.174Z,20.47
2016-12-29T07:05:42.662Z,20.67
2016-12-29T07:06:23.148Z,20.67
2016-12-29T07:07:03.644Z,20.67
2016-12-29T07:07:44.127Z,20.57
2016-12-29T07:08:24.621Z,20.67
2016-12-29T07:09:05.112Z,20.76
2016-12-29T07:09:45.593Z,20.57
2016-12-29T07:10:26.086Z,20.47
2016-12-29T07:11:06.588Z,20.57
2016-12-29T07:11:47.087Z,20.47
2016-12-29T07:12:27.588Z,20.47
2016-12-29T07:13:08.105Z,20.38
2016-12-29T07:13:48.590Z,20.47
2016-12-29T07:14:29.098Z,20.47
2016-12-29T07:15:09.588Z,20.47
2016-12-29T07:15:50.084Z,20.38
2016-12-29T07:16:30.580Z,20.47
2016-12-29T07:17:11.062Z,20.47
2016-12-29T07:17:51.553Z,20.47
2016-12-29T07:18:32.035Z,20.38
2016-12-29T07:19:12.546Z,20.47
2016-12-29T07:19:53.034Z,20.47
2016-12-29T07:20:33.527Z,20.57
2016-12-29T07:21:14.028Z,20.47
2016-12-29T07:21:54.542Z,20.38
2016-12-29T07:22:35.030Z,20.38
2016-12-29T07:23:15.529Z,20.47
2016-12-29T07:23:56.032Z,20.57
2016-12-29T07:24:36.523Z,20.47
2016-12-29T07:25:17.019Z,20.57
2016-12-29T07:25:57.481Z,20.57
2016-12-29T07:26:37.985Z,20.57
2016-12-29T07:27:18.476Z,20.57
2016-12-29T07:27:59.271Z,20.57
2016-12-29T07:28:39.758Z,20.47
2016-12-29T07:29:20.238Z,20.67
2016-12-29T07:30:00.739Z,20.57
2016-12-29T07:30:41.227Z,20.67
2016-12-29T07:31:21.725Z,20.47
2016-12-29T07:32:02.223Z,20.57
2016-12-29T07:32:42.740Z,20.57
2016-12-29T07:33:23.228Z,20.57
2016-12-29T07:34:03.734Z,20.67
2016-12-29T07:34:44.224Z,20.67
2016-12-29T07:35:24.721Z,20.67
2016-12-29T07:36:05.222Z,20.38
2016-12-29T07:36:45.713Z,20.57
2016-12-29T07:37:26.196Z,20.47
2016-12-29T07:38:06.678Z,20.47
2016-12-29T07:38:47.178Z,20.38
2016-12-29T07:39:27.666Z,20.38
2016-12-29T07:40:08.157Z,20.38
2016-12-29T07:40:48.642Z,20.47
2016-12-29T07:41:29.127Z,20.38
2016-12-29T07:42:09.624Z,20.28
2016-12-29T07:42:50.116Z,20.28
2016-12-29T07:43:30.605Z,20.18
2016-12-29T07:44:11.112Z,20.28
2016-12-29T07:44:51.587Z,20.28
2016-12-29T07:45:32.087Z,20.38
2016-12-29T07:46:12.571Z,20.28
2016-12-29T07:46:53.068Z,20.28
2016-12-29T07:47:33.556Z,20.28
2016-12-29T07:48:14.057Z,20.38
2016-12-29T07:48:54.553Z,20.28
2016-12-29T07:49:35.069Z,20.38
2016-12-29T07:50:15.552Z,20.38
2016-12-29T07:50:56.071Z,20.38
2016-12-29T07:51:36.556Z,20.18
2016-12-29T07:52:17.049Z,20.47
2016-12-29T07:52:57.690Z,20.18
2016-12-29T07:53:38.177Z,20.47
2016-12-29T07:54:18.655Z,20.18
2016-12-29T07:54:59.883Z,20.28
2016-12-29T07:55:40.376Z,20.28
2016-12-29T07:56:20.881Z,20.18
2016-12-29T07:57:01.368Z,20.28
2016-12-29T07:57:41.860Z,19.9
2016-12-29T07:58:22.577Z,19.9
2016-12-29T07:59:03.068Z,19.8
2016-12-29T07:59:43.558Z,19.9
2016-12-29T08:00:24.052Z,20
2016-12-29T08:01:04.542Z,20
2016-12-29T08:01:45.028Z,20
2016-12-29T08:02:25.526Z,20.28
2016-12-29T08:03:06.017Z,20
2016-12-29T08:03:46.510Z,20.09
2016-12-29T08:04:27.009Z,20
2016-12-29T08:05:07.490Z,20
2016-12-29T08:05:47.986Z,20.18
2016-12-29T08:06:28.465Z,20.09
2016-12-29T08:07:08.969Z,20
2016-12-29T08:07:49.459Z,20.09
2016-12-29T08:08:29.961Z,20.09
2016-12-29T08:09:10.456Z,19.9
2016-12-29T08:09:50.951Z,20
2016-12-29T08:10:31.430Z,20
2016-12-29T08:11:11.923Z,20.18
2016-12-29T08:11:52.415Z,20.09
2016-12-29T08:12:32.906Z,20.28
2016-12-29T08:13:13.414Z,20.18
2016-12-29T08:13:53.904Z,20.18
2016-12-29T08:14:34.411Z,20.18
2016-12-29T08:15:14.905Z,20.18
2016-12-29T08:15:55.401Z,20.09
2016-12-29T08:16:35.898Z,19.8
2016-12-29T08:17:16.382Z,19.8
2016-12-29T08:17:56.871Z,19.8
2016-12-29T08:18:37.350Z,19.9
2016-12-29T08:19:17.840Z,19.8
2016-12-29T08:19:58.323Z,19.9
2016-12-29T08:20:38.818Z,20.09
2016-12-29T08:21:19.305Z,20
2016-12-29T08:21:59.800Z,19.9
2016-12-29T08:22:40.284Z,20
2016-12-29T08:23:20.944Z,20
2016-12-29T08:24:01.442Z,19.9
2016-12-29T08:24:41.954Z,19.9
2016-12-29T08:25:22.445Z,19.9
2016-12-29T08:26:02.941Z,19.9
2016-12-29T08:26:43.441Z,20
2016-12-29T08:27:23.925Z,19.9
2016-12-29T08:28:04.412Z,20
2016-12-29T08:28:44.894Z,19.71
2016-12-29T08:29:25.399Z,19.9
2016-12-29T08:30:05.889Z,19.8
2016-12-29T08:30:46.388Z,19.81
2016-12-29T08:31:26.881Z,19.71
2016-12-29T08:32:07.371Z,19.62
2016-12-29T08:32:47.857Z,19.81
2016-12-29T08:33:28.345Z,19.9
2016-12-29T08:34:08.844Z,19.43
2016-12-29T08:34:49.335Z,19.52
2016-12-29T08:35:29.831Z,19.33
2016-12-29T08:36:10.328Z,19.43
2016-12-29T08:36:50.832Z,19.43
2016-12-29T08:37:31.327Z,19.43
2016-12-29T08:38:11.828Z,19.13
2016-12-29T08:38:52.329Z,19.52
2016-12-29T08:39:32.797Z,19.52
2016-12-29T08:40:13.306Z,19.52
2016-12-29T08:40:53.804Z,19.43
2016-12-29T08:41:34.304Z,19.13
2016-12-29T08:42:14.785Z,19.04
2016-12-29T08:42:55.287Z,19.04
2016-12-29T08:43:35.777Z,19.13
2016-12-29T08:44:16.290Z,19.43
2016-12-29T08:44:56.776Z,19.23
2016-12-29T08:45:37.269Z,19.33
2016-12-29T08:46:17.751Z,19.23
2016-12-29T08:46:58.239Z,19.43
2016-12-29T08:47:38.730Z,19.23